Pagrindinis puslapis
METAR-TAF:

METAR-TAF

Oro uostai :

Geteborgas, Švedija

platuma: 57-47N, ilguma: 011-53E, Aukštis: 20 m

Dabartinis oras

Ataskaita buvo paskelbta 37 minutes, ne 01:20 UTC
Vėjas 4 kt iš Rytų
Temperatūra -1°C
Drėgmė 86%
Slėgis 1008 hPa
Matomumas 10 km arba daugiau

METAR: ESGP 190120Z AUTO 09004KT 9999 NCD M01/M03 Q1008

Laikas: 03:57 (01:57 UTC)

Prognozė

Ataskaita buvo paskelbta 11 valandos ir 27 minutes, ne 14:30 UTC
Prognozė galioja nuo 18 metu 15 UTC su 18 metu 17 UTC
Vėjas 8 kt iš Šiaurės Rytų
Matomumas 10 km arba daugiau
Išsisklaidę debesys ne aukštis 4000 ft

TAF: ESGP 181430Z 1815/1817 04008KT 9999 SCT040

Orai ataskaitas ir orų prognozės (METAR, TAF).

turimą stotys yra geltonos ir raudonos taškus žemėlapyje.

Perkelti pele per norėdami pamatyti stoties vardą.

Tada spustelėkite, norėdami matyti oro stebėjimo ir prognozės.

Norėdami pakeisti žemėlapį: spustelėkite ant žalios mygtukų su juodo kryžiaus žemyn,; žalią mygtuką su brūkšneliu, jei norite nutolinti; arba žalių rodyklių gretimoms žemėlapius.


METAR-TAF: